KMLS

Frank Wiley Field Airport

Miles City, Montana, USA
METAR KMLS 260353Z AUTO 20004KT 10SM CLR 20/12 A2981 RMK AO2 SLP079 T02000122
Observed Flight Rules
May-26 @ 03:53 UTC (27 minutes ago) Visual Flight Rules
Wind Visibility Clouds
200° at 4 knots 10 miles
  • Clear skies
Temperatures Readings
Current 20°C / 68°F
Dewpoint 12°C / 54°F
Humidity 60%
Altimeter 29.81" Hg
Pressure 1007.9 hPa
Elevation 801
METAR KMLS 260353Z AUTO 20004KT 10SM CLR 20/12 A2981 RMK AO2 SLP079 T02000122
Observed Flight Rules
May-26 @ 03:53 UTC
(27 minutes ago)
VFR
Wind Visibility
200° at 4 knots 10 miles
Clouds
  • Clear skies
Temperature Dewpoint
20°C / 68°F 12°C / 54°F
Humidity Altimeter Pressure
60% 29.81" Hg 1007.9 hPa